createdAt,value
2023-01-29T00:01:23.762Z,8.81
2023-01-29T00:06:25.895Z,8.46
2023-01-29T00:11:28.122Z,8.90
2023-01-29T00:16:30.441Z,8.45
2023-01-29T00:21:32.704Z,9.12
2023-01-29T00:26:35.025Z,9.41
2023-01-29T00:31:37.377Z,9.16
2023-01-29T00:36:39.727Z,9.34
2023-01-29T00:42:00.085Z,9.19
2023-01-29T00:47:03.195Z,9.14
2023-01-29T00:52:23.843Z,8.69
2023-01-29T00:57:27.226Z,8.87
2023-01-29T01:02:47.872Z,8.78
2023-01-29T01:07:51.603Z,8.93
2023-01-29T01:12:58.692Z,9.02
2023-01-29T01:18:02.581Z,9.03
2023-01-29T01:23:05.393Z,8.98
2023-01-29T01:28:07.509Z,8.76
2023-01-29T01:33:09.693Z,8.78
2023-01-29T01:38:12.092Z,8.93
2023-01-29T01:43:14.287Z,9.03
2023-01-29T01:48:22.157Z,8.61
2023-01-29T01:53:50.238Z,8.70
2023-01-29T01:58:58.987Z,8.36
2023-01-29T02:04:26.718Z,8.70
2023-01-29T02:09:59.314Z,8.69
2023-01-29T02:15:01.499Z,8.72
2023-01-29T02:20:17.951Z,8.67
2023-01-29T02:25:35.203Z,8.61
2023-01-29T02:30:44.822Z,8.45
2023-01-29T02:35:53.559Z,8.46
2023-01-29T02:41:11.616Z,8.66
2023-01-29T02:46:35.974Z,8.43
2023-01-29T02:51:47.533Z,8.73
2023-01-29T02:56:56.796Z,8.64
2023-01-29T03:02:14.251Z,8.65
2023-01-29T03:07:40.509Z,8.69
2023-01-29T03:12:47.093Z,8.81
2023-01-29T03:17:58.527Z,8.63
2023-01-29T03:23:12.090Z,8.82
2023-01-29T03:28:36.877Z,8.76
2023-01-29T03:34:16.850Z,8.90
2023-01-29T03:39:19.043Z,8.99
2023-01-29T03:44:40.628Z,8.99
2023-01-29T03:50:11.912Z,8.57
2023-01-29T03:55:49.243Z,9.04
2023-01-29T04:00:59.139Z,8.91
2023-01-29T04:06:10.179Z,8.99
2023-01-29T04:11:18.580Z,8.95
2023-01-29T04:16:32.550Z,9.04
2023-01-29T04:21:37.548Z,9.10
2023-01-29T04:27:04.207Z,9.11
2023-01-29T04:32:12.250Z,9.14
2023-01-29T04:37:20.774Z,9.15
2023-01-29T04:42:50.461Z,8.81
2023-01-29T04:48:12.482Z,8.84
2023-01-29T04:53:26.221Z,8.96
2023-01-29T04:58:38.723Z,8.78
2023-01-29T05:03:46.134Z,9.06
2023-01-29T05:08:51.510Z,8.92
2023-01-29T05:13:54.509Z,9.07
2023-01-29T05:18:56.830Z,9.00
2023-01-29T05:24:12.760Z,8.99
2023-01-29T05:29:15.119Z,8.66
2023-01-29T05:34:17.288Z,8.92
2023-01-29T05:39:19.877Z,9.14
2023-01-29T05:44:22.149Z,9.10
2023-01-29T05:49:24.445Z,8.84
2023-01-29T05:54:26.576Z,8.61
2023-01-29T05:59:31.412Z,8.63
2023-01-29T06:04:33.471Z,8.64
2023-01-29T06:09:35.587Z,8.65
2023-01-29T06:14:37.677Z,8.56
2023-01-29T06:19:39.810Z,8.72
2023-01-29T06:24:41.959Z,8.71
2023-01-29T06:29:44.148Z,8.78
2023-01-29T06:34:48.657Z,8.66
2023-01-29T06:39:51.849Z,8.84
2023-01-29T06:44:57.146Z,8.45
2023-01-29T06:49:59.319Z,8.72
2023-01-29T06:55:01.622Z,8.49
2023-01-29T07:00:04.778Z,8.73
2023-01-29T07:05:07.186Z,8.83
2023-01-29T07:10:09.845Z,9.03
2023-01-29T07:15:13.143Z,8.81
2023-01-29T07:20:15.655Z,8.89
2023-01-29T07:25:18.087Z,9.10
2023-01-29T07:30:20.374Z,9.13
2023-01-29T07:35:22.780Z,9.11
2023-01-29T07:40:24.888Z,9.04
2023-01-29T07:45:27.316Z,9.25
2023-01-29T07:50:29.564Z,8.99
2023-01-29T07:55:32.205Z,9.07
2023-01-29T08:00:34.287Z,9.46
2023-01-29T08:05:36.610Z,9.58
2023-01-29T08:10:40.655Z,9.70
2023-01-29T08:15:46.565Z,9.62
2023-01-29T08:20:48.604Z,9.57
2023-01-29T08:25:50.754Z,9.68
2023-01-29T08:30:53.025Z,9.95
2023-01-29T08:35:55.529Z,10.10
2023-01-29T08:40:58.005Z,10.07
2023-01-29T08:46:00.216Z,10.37
2023-01-29T08:51:02.903Z,10.11
2023-01-29T08:56:05.376Z,10.50
2023-01-29T09:01:12.275Z,10.61
2023-01-29T09:06:15.133Z,10.56
2023-01-29T09:11:17.436Z,10.46
2023-01-29T09:16:19.716Z,10.46
2023-01-29T09:21:21.985Z,10.37
2023-01-29T09:26:24.124Z,10.62
2023-01-29T09:31:26.367Z,10.61
2023-01-29T09:36:28.625Z,10.63
2023-01-29T09:41:39.583Z,11.04
2023-01-29T09:46:45.315Z,11.05
2023-01-29T09:51:53.117Z,11.25
2023-01-29T09:56:57.481Z,11.18
2023-01-29T10:02:05.716Z,11.45
2023-01-29T10:07:35.634Z,11.55
2023-01-29T10:12:53.149Z,11.66
2023-01-29T10:18:06.217Z,11.71
2023-01-29T10:23:29.768Z,11.58
2023-01-29T10:28:47.960Z,11.64
2023-01-29T10:34:02.024Z,11.78
2023-01-29T10:39:04.896Z,11.76
2023-01-29T10:44:42.103Z,11.90
2023-01-29T10:50:28.742Z,11.94
2023-01-29T10:55:48.333Z,11.97
2023-01-29T11:00:51.008Z,12.15
2023-01-29T11:06:20.300Z,12.24
2023-01-29T11:11:39.999Z,12.47
2023-01-29T11:16:45.543Z,12.50
2023-01-29T11:21:58.561Z,12.48
2023-01-29T11:27:01.140Z,12.62
2023-01-29T11:32:23.476Z,12.58
2023-01-29T11:37:33.747Z,12.95
2023-01-29T11:42:35.819Z,13.05
2023-01-29T11:47:38.067Z,13.00
2023-01-29T11:52:43.818Z,12.94
2023-01-29T11:58:11.835Z,13.06
2023-01-29T12:03:23.821Z,13.21
2023-01-29T12:08:34.558Z,13.12
2023-01-29T12:13:37.195Z,12.93
2023-01-29T12:18:44.842Z,13.17
2023-01-29T12:24:07.447Z,13.33
2023-01-29T12:29:31.146Z,13.51
2023-01-29T12:34:52.586Z,13.42
2023-01-29T12:39:55.055Z,13.17
2023-01-29T12:45:09.003Z,13.38
2023-01-29T12:50:21.818Z,13.12
2023-01-29T12:55:48.137Z,13.63
2023-01-29T13:00:55.032Z,13.79
2023-01-29T13:06:12.634Z,13.80
2023-01-29T13:11:31.591Z,13.74
2023-01-29T13:16:41.213Z,13.64
2023-01-29T13:21:45.309Z,13.70
2023-01-29T13:26:49.409Z,13.82
2023-01-29T13:31:54.370Z,13.44
2023-01-29T13:36:59.606Z,13.70
2023-01-29T13:42:15.195Z,13.72
2023-01-29T13:47:29.833Z,13.68
2023-01-29T13:52:34.952Z,13.77
2023-01-29T13:57:46.660Z,13.67
2023-01-29T14:03:14.250Z,13.62
2023-01-29T14:08:16.418Z,13.66
2023-01-29T14:13:18.550Z,13.58
2023-01-29T14:18:26.704Z,13.49
2023-01-29T14:23:31.441Z,13.44
2023-01-29T14:28:35.684Z,13.07
2023-01-29T14:33:43.461Z,12.93
2023-01-29T14:38:51.826Z,12.86
2023-01-29T14:44:32.813Z,12.98
2023-01-29T14:49:50.178Z,12.91
2023-01-29T14:54:54.837Z,12.72
2023-01-29T15:00:02.590Z,12.74
2023-01-29T15:05:11.176Z,12.45
2023-01-29T15:10:33.155Z,12.31
2023-01-29T15:15:35.376Z,12.53
2023-01-29T15:20:40.060Z,12.36
2023-01-29T15:25:53.889Z,12.22
2023-01-29T15:30:58.026Z,12.04
2023-01-29T15:36:08.816Z,11.98
2023-01-29T15:41:21.800Z,11.93
2023-01-29T15:46:37.627Z,11.78
2023-01-29T15:51:40.479Z,11.67
2023-01-29T15:56:48.946Z,11.65
2023-01-29T16:01:51.237Z,11.45
2023-01-29T16:06:55.014Z,11.18
2023-01-29T16:11:59.311Z,11.38
2023-01-29T16:17:36.434Z,11.37
2023-01-29T16:22:38.995Z,11.20
2023-01-29T16:27:43.872Z,10.96
2023-01-29T16:32:46.121Z,10.80
2023-01-29T16:37:51.039Z,10.89
2023-01-29T16:43:17.793Z,10.98
2023-01-29T16:48:31.183Z,10.92
2023-01-29T16:53:35.988Z,10.67
2023-01-29T16:58:38.181Z,10.60
2023-01-29T17:03:42.270Z,10.66
2023-01-29T17:08:45.058Z,10.51
2023-01-29T17:13:47.313Z,10.69
2023-01-29T17:18:49.840Z,10.36
2023-01-29T17:23:52.549Z,10.43
2023-01-29T17:28:55.569Z,10.11
2023-01-29T17:33:58.184Z,10.09
2023-01-29T17:39:01.571Z,10.38
2023-01-29T17:44:03.864Z,10.40
2023-01-29T17:49:27.091Z,10.21
2023-01-29T17:54:29.348Z,10.12
2023-01-29T17:59:33.649Z,9.99
2023-01-29T18:04:38.389Z,10.15
2023-01-29T18:09:42.679Z,10.05
2023-01-29T18:14:45.641Z,10.38
2023-01-29T18:19:48.428Z,10.26
2023-01-29T18:24:50.584Z,10.14
2023-01-29T18:29:52.709Z,10.12
2023-01-29T18:34:55.007Z,9.66
2023-01-29T18:39:57.216Z,9.65
2023-01-29T18:45:04.121Z,9.66
2023-01-29T18:50:07.770Z,9.82
2023-01-29T18:55:10.255Z,9.74
2023-01-29T19:00:12.694Z,9.63
2023-01-29T19:05:17.286Z,9.85
2023-01-29T19:10:19.831Z,9.83
2023-01-29T19:15:23.155Z,10.00
2023-01-29T19:20:25.516Z,10.12
2023-01-29T19:25:27.605Z,9.67
2023-01-29T19:30:29.815Z,9.63
2023-01-29T19:35:32.981Z,9.85
2023-01-29T19:40:36.164Z,9.80
2023-01-29T19:45:50.441Z,9.98
2023-01-29T19:50:53.768Z,9.79
2023-01-29T19:56:02.852Z,9.64
2023-01-29T20:01:17.074Z,10.01
2023-01-29T20:06:22.888Z,9.67
2023-01-29T20:11:25.844Z,9.40
2023-01-29T20:16:28.276Z,9.80
2023-01-29T20:21:30.540Z,10.12
2023-01-29T20:26:33.362Z,10.44
2023-01-29T20:31:35.572Z,10.65
2023-01-29T20:36:37.828Z,10.58
2023-01-29T20:41:41.935Z,10.66
2023-01-29T20:46:44.084Z,10.39
2023-01-29T20:51:47.131Z,10.14
2023-01-29T20:56:49.297Z,10.21
2023-01-29T21:01:51.975Z,9.92
2023-01-29T21:06:56.885Z,10.02
2023-01-29T21:11:59.009Z,10.18
2023-01-29T21:17:02.116Z,10.45
2023-01-29T21:22:05.023Z,10.21
2023-01-29T21:27:07.090Z,9.97
2023-01-29T21:32:10.249Z,9.97
2023-01-29T21:37:12.417Z,9.94
2023-01-29T21:42:33.048Z,10.06
2023-01-29T21:47:34.954Z,10.23
2023-01-29T21:52:37.102Z,10.15
2023-01-29T21:57:39.300Z,10.11
2023-01-29T22:02:41.791Z,10.21
2023-01-29T22:07:44.692Z,10.07
2023-01-29T22:12:47.529Z,10.18
2023-01-29T22:17:50.415Z,10.04
2023-01-29T22:22:52.489Z,9.95
2023-01-29T22:27:54.725Z,9.82
2023-01-29T22:32:56.860Z,9.80
2023-01-29T22:37:59.011Z,10.00
2023-01-29T22:43:01.121Z,9.83
2023-01-29T22:48:03.267Z,9.78
2023-01-29T22:53:05.731Z,9.53
2023-01-29T22:58:07.829Z,9.69
2023-01-29T23:03:09.996Z,9.73
2023-01-29T23:08:12.276Z,9.37
2023-01-29T23:13:14.569Z,9.39
2023-01-29T23:18:16.881Z,9.28
2023-01-29T23:23:19.044Z,9.21
2023-01-29T23:28:21.221Z,9.14
2023-01-29T23:33:23.501Z,9.49
2023-01-29T23:38:25.845Z,9.77
2023-01-29T23:43:28.988Z,9.27
2023-01-29T23:48:31.172Z,9.61
2023-01-29T23:53:33.309Z,9.47
2023-01-29T23:58:35.482Z,9.42
